createdAt,value
2023-02-23T00:12:45.584Z,83.5
2023-02-23T00:32:45.586Z,84.4
2023-02-23T00:52:45.593Z,84.3
2023-02-23T01:12:45.622Z,85.3
2023-02-23T01:32:45.586Z,85.6
2023-02-23T01:52:45.590Z,85.8
2023-02-23T02:12:45.613Z,85.2
2023-02-23T02:32:45.672Z,86.5
2023-02-23T02:52:45.523Z,85.5
2023-02-23T03:12:45.503Z,86.4
2023-02-23T03:32:45.542Z,85.7
2023-02-23T03:52:45.514Z,86.8
2023-02-23T04:12:45.510Z,87.0
2023-02-23T04:32:45.524Z,87.1
2023-02-23T04:52:45.531Z,87.3
2023-02-23T05:12:45.571Z,88.8
2023-02-23T05:32:45.535Z,88.7
2023-02-23T05:52:45.566Z,89.3
2023-02-23T06:12:45.641Z,89.9
2023-02-23T06:32:45.489Z,90.0
2023-02-23T06:52:45.463Z,90.3
2023-02-23T07:12:45.471Z,90.5
2023-02-23T07:32:45.451Z,89.5
2023-02-23T07:52:45.532Z,86.5
2023-02-23T08:12:45.484Z,85.6
2023-02-23T08:32:45.541Z,85.5
2023-02-23T08:52:45.416Z,86.1
2023-02-23T09:12:45.480Z,86.0
2023-02-23T09:32:45.451Z,84.7
2023-02-23T09:52:45.443Z,84.2
2023-02-23T10:12:45.447Z,84.3
2023-02-23T10:32:45.454Z,82.1
2023-02-23T10:52:45.445Z,80.5
2023-02-23T11:12:45.485Z,81.2
2023-02-23T11:32:45.344Z,80.5
2023-02-23T11:52:45.390Z,79.5
2023-02-23T12:12:45.428Z,78.6
2023-02-23T12:32:45.274Z,78.8
2023-02-23T12:52:45.266Z,75.8
2023-02-23T13:12:45.296Z,77.4
2023-02-23T13:32:45.279Z,76.9
2023-02-23T13:52:45.335Z,76.9
2023-02-23T14:12:45.202Z,75.4
2023-02-23T14:32:45.277Z,73.8
2023-02-23T14:52:45.234Z,76.4
2023-02-23T15:12:45.230Z,76.8
2023-02-23T15:32:45.258Z,77.6
2023-02-23T15:52:45.356Z,78.5
2023-02-23T16:12:45.315Z,79.5
2023-02-23T16:32:45.276Z,82.5
2023-02-23T16:52:45.294Z,83.9
2023-02-23T17:12:45.342Z,84.8
2023-02-23T17:32:45.273Z,86.3
2023-02-23T17:52:45.249Z,87.0
2023-02-23T18:12:45.280Z,88.2
2023-02-23T18:32:45.165Z,88.8
2023-02-23T18:52:45.303Z,89.3
2023-02-23T19:12:45.277Z,89.5
2023-02-23T19:32:45.248Z,90.0
2023-02-23T19:52:45.371Z,90.7
2023-02-23T20:12:45.224Z,91.0
2023-02-23T20:32:45.221Z,91.1
2023-02-23T20:52:45.232Z,91.4
2023-02-23T21:12:45.251Z,91.5
2023-02-23T21:32:45.217Z,91.7
2023-02-23T21:52:45.219Z,91.7
2023-02-23T22:12:45.251Z,91.8
2023-02-23T22:32:45.266Z,91.8
2023-02-23T22:52:45.268Z,91.9
2023-02-23T23:12:45.241Z,91.9
2023-02-23T23:32:45.082Z,91.8
2023-02-23T23:52:45.230Z,91.8
